Anna, Texas
Current Conditions -  °F | °C
As of 5:53 AM on Tuesday 27 Jan 2015 (Local Time) from KTKI Reporting Station
Clear Clear  
Wind Chill: 40°   Ceiling: Unl
Heat Index: 40°   Visibility: 10mi
Dew Point: 35°   Wind: 3mph
Humidity: 83%   Direction: 340°NNW
Pressure: 30.09"   Gusts: NA
Location:  33.35°N, 96.55°W
Report Text: KTKI 271153Z 34003KT 10SM CLR 04/02 A3009 RMK AO2 SLP197 T00440017 10078 20039 53006
Loading
Personal Weather Stations






























Interactive Weather Map New forecast layout! Learn more

10-Day Weather Forecast

Advertisements
Track Severe Weather on mobile